Schedule Details


Flight Number: CTN462
Departure: Kastela (LDSP) at 07:25
Arrival: Zurich (LSZH) at 09:20
Route: ZDA N606 PUL P11 ROTAR L615 AKADO Y265 INBUT N503 VIC L12 MOGTI P66 KPT L856 NEGRA

Weather Information
LDSP 072300Z AUTO VRB01KT CAVOK 27/13 Q1014
LSZH 072320Z 34004KT CAVOK 18/16 Q1021 NOSIG
Schedule Frequency

Route Map